sensor_id;sensor_type;location;lat;lon;timestamp;P1;durP1;ratioP1;P2;durP2;ratioP2
60239;SDS011;46102;39.012;-7.064;2023-03-01T00:01:18;2.22;;;1.20;;
60239;SDS011;46102;39.012;-7.064;2023-03-01T00:03:20;1.52;;;1.42;;
60239;SDS011;46102;39.012;-7.064;2023-03-01T00:05:21;3.33;;;1.38;;
60239;SDS011;46102;39.012;-7.064;2023-03-01T00:07:22;3.40;;;1.50;;
60239;SDS011;46102;39.012;-7.064;2023-03-01T00:09:22;2.38;;;1.40;;
60239;SDS011;46102;39.012;-7.064;2023-03-01T00:11:25;2.42;;;1.48;;
60239;SDS011;46102;39.012;-7.064;2023-03-01T00:13:27;0.97;;;0.97;;
60239;SDS011;46102;39.012;-7.064;2023-03-01T00:15:28;3.53;;;1.17;;
60239;SDS011;46102;39.012;-7.064;2023-03-01T00:17:28;1.23;;;1.15;;
60239;SDS011;46102;39.012;-7.064;2023-03-01T00:19:29;1.05;;;1.00;;
60239;SDS011;46102;39.012;-7.064;2023-03-01T00:21:30;8.45;;;1.45;;
60239;SDS011;46102;39.012;-7.064;2023-03-01T00:23:31;1.30;;;1.20;;
60239;SDS011;46102;39.012;-7.064;2023-03-01T00:25:40;1.38;;;1.27;;
60239;SDS011;46102;39.012;-7.064;2023-03-01T00:27:41;1.38;;;1.25;;
60239;SDS011;46102;39.012;-7.064;2023-03-01T00:29:42;1.17;;;1.17;;
60239;SDS011;46102;39.012;-7.064;2023-03-01T00:31:43;1.63;;;1.25;;
60239;SDS011;46102;39.012;-7.064;2023-03-01T00:33:44;1.70;;;1.00;;
60239;SDS011;46102;39.012;-7.064;2023-03-01T00:35:45;1.52;;;1.20;;
60239;SDS011;46102;39.012;-7.064;2023-03-01T00:37:46;1.25;;;1.15;;
60239;SDS011;46102;39.012;-7.064;2023-03-01T00:39:47;1.00;;;1.00;;
60239;SDS011;46102;39.012;-7.064;2023-03-01T00:41:49;1.33;;;1.20;;
60239;SDS011;46102;39.012;-7.064;2023-03-01T00:43:50;1.10;;;1.00;;
60239;SDS011;46102;39.012;-7.064;2023-03-01T00:45:51;1.23;;;1.13;;
60239;SDS011;46102;39.012;-7.064;2023-03-01T00:47:52;1.65;;;1.40;;
60239;SDS011;46102;39.012;-7.064;2023-03-01T00:49:53;2.15;;;1.00;;
60239;SDS011;46102;39.012;-7.064;2023-03-01T00:51:54;2.47;;;1.17;;
60239;SDS011;46102;39.012;-7.064;2023-03-01T00:53:58;2.00;;;1.25;;
60239;SDS011;46102;39.012;-7.064;2023-03-01T00:56:00;1.20;;;1.10;;
60239;SDS011;46102;39.012;-7.064;2023-03-01T00:58:01;1.08;;;0.95;;
60239;SDS011;46102;39.012;-7.064;2023-03-01T01:00:03;4.43;;;1.52;;
60239;SDS011;46102;39.012;-7.064;2023-03-01T01:02:05;1.70;;;1.20;;
60239;SDS011;46102;39.012;-7.064;2023-03-01T01:04:07;3.08;;;1.48;;
60239;SDS011;46102;39.012;-7.064;2023-03-01T01:06:15;2.90;;;1.17;;
60239;SDS011;46102;39.012;-7.064;2023-03-01T01:08:20;1.58;;;1.15;;
60239;SDS011;46102;39.012;-7.064;2023-03-01T01:10:21;1.30;;;1.15;;
60239;SDS011;46102;39.012;-7.064;2023-03-01T01:12:22;1.42;;;1.20;;
60239;SDS011;46102;39.012;-7.064;2023-03-01T01:14:23;5.15;;;1.38;;
60239;SDS011;46102;39.012;-7.064;2023-03-01T01:16:24;3.13;;;2.25;;
60239;SDS011;46102;39.012;-7.064;2023-03-01T01:18:26;1.65;;;1.20;;
60239;SDS011;46102;39.012;-7.064;2023-03-01T01:20:27;1.40;;;1.30;;
60239;SDS011;46102;39.012;-7.064;2023-03-01T01:22:28;10.82;;;1.52;;
60239;SDS011;46102;39.012;-7.064;2023-03-01T01:24:29;2.58;;;1.48;;
60239;SDS011;46102;39.012;-7.064;2023-03-01T01:26:31;1.45;;;1.30;;
60239;SDS011;46102;39.012;-7.064;2023-03-01T01:28:34;1.13;;;0.93;;
60239;SDS011;46102;39.012;-7.064;2023-03-01T01:30:35;1.17;;;1.05;;
60239;SDS011;46102;39.012;-7.064;2023-03-01T01:32:36;2.97;;;1.50;;
60239;SDS011;46102;39.012;-7.064;2023-03-01T01:34:37;1.48;;;1.38;;
60239;SDS011;46102;39.012;-7.064;2023-03-01T01:36:38;5.28;;;1.55;;
60239;SDS011;46102;39.012;-7.064;2023-03-01T01:38:39;2.63;;;1.10;;
60239;SDS011;46102;39.012;-7.064;2023-03-01T01:40:46;2.63;;;1.30;;
60239;SDS011;46102;39.012;-7.064;2023-03-01T01:42:48;2.40;;;1.52;;
60239;SDS011;46102;39.012;-7.064;2023-03-01T01:45:15;3.17;;;1.35;;
60239;SDS011;46102;39.012;-7.064;2023-03-01T01:47:26;2.38;;;1.30;;
60239;SDS011;46102;39.012;-7.064;2023-03-01T01:49:43;1.20;;;1.20;;
60239;SDS011;46102;39.012;-7.064;2023-03-01T01:51:48;1.60;;;1.27;;
60239;SDS011;46102;39.012;-7.064;2023-03-01T01:53:53;1.10;;;0.95;;
60239;SDS011;46102;39.012;-7.064;2023-03-01T01:55:59;2.45;;;1.17;;
60239;SDS011;46102;39.012;-7.064;2023-03-01T01:58:02;2.42;;;1.20;;
60239;SDS011;46102;39.012;-7.064;2023-03-01T02:00:09;1.48;;;1.27;;
60239;SDS011;46102;39.012;-7.064;2023-03-01T02:02:17;4.18;;;1.33;;
60239;SDS011;46102;39.012;-7.064;2023-03-01T02:04:19;2.00;;;1.27;;
60239;SDS011;46102;39.012;-7.064;2023-03-01T02:08:43;3.10;;;1.63;;
60239;SDS011;46102;39.012;-7.064;2023-03-01T02:10:46;3.33;;;1.30;;
60239;SDS011;46102;39.012;-7.064;2023-03-01T02:12:49;1.70;;;1.40;;
60239;SDS011;46102;39.012;-7.064;2023-03-01T02:14:51;8.98;;;1.13;;
60239;SDS011;46102;39.012;-7.064;2023-03-01T02:16:52;2.45;;;1.08;;
60239;SDS011;46102;39.012;-7.064;2023-03-01T02:18:53;0.95;;;0.95;;
60239;SDS011;46102;39.012;-7.064;2023-03-01T02:20:57;1.83;;;1.02;;
60239;SDS011;46102;39.012;-7.064;2023-03-01T02:23:03;3.10;;;1.30;;
60239;SDS011;46102;39.012;-7.064;2023-03-01T02:27:19;2.33;;;0.82;;
60239;SDS011;46102;39.012;-7.064;2023-03-01T02:29:26;2.60;;;1.08;;
60239;SDS011;46102;39.012;-7.064;2023-03-01T02:31:28;5.25;;;1.10;;
60239;SDS011;46102;39.012;-7.064;2023-03-01T02:33:46;1.08;;;1.02;;
60239;SDS011;46102;39.012;-7.064;2023-03-01T02:35:48;1.08;;;0.98;;
60239;SDS011;46102;39.012;-7.064;2023-03-01T02:37:49;1.35;;;0.93;;
60239;SDS011;46102;39.012;-7.064;2023-03-01T02:39:52;1.13;;;1.13;;
60239;SDS011;46102;39.012;-7.064;2023-03-01T02:41:58;1.85;;;1.00;;
60239;SDS011;46102;39.012;-7.064;2023-03-01T02:44:00;4.40;;;1.27;;
60239;SDS011;46102;39.012;-7.064;2023-03-01T02:46:04;2.05;;;0.93;;
60239;SDS011;46102;39.012;-7.064;2023-03-01T02:48:07;2.20;;;1.00;;
60239;SDS011;46102;39.012;-7.064;2023-03-01T02:54:58;0.98;;;0.98;;
60239;SDS011;46102;39.012;-7.064;2023-03-01T02:57:01;1.00;;;1.00;;
60239;SDS011;46102;39.012;-7.064;2023-03-01T02:59:05;1.48;;;1.38;;
60239;SDS011;46102;39.012;-7.064;2023-03-01T03:01:07;1.40;;;1.17;;
60239;SDS011;46102;39.012;-7.064;2023-03-01T03:03:10;1.00;;;1.00;;
60239;SDS011;46102;39.012;-7.064;2023-03-01T03:05:15;1.20;;;1.10;;
60239;SDS011;46102;39.012;-7.064;2023-03-01T03:07:17;1.20;;;1.10;;
60239;SDS011;46102;39.012;-7.064;2023-03-01T03:09:19;1.13;;;1.00;;
60239;SDS011;46102;39.012;-7.064;2023-03-01T03:11:20;2.20;;;1.30;;
60239;SDS011;46102;39.012;-7.064;2023-03-01T03:13:21;3.05;;;1.15;;
60239;SDS011;46102;39.012;-7.064;2023-03-01T03:15:22;2.25;;;1.00;;
60239;SDS011;46102;39.012;-7.064;2023-03-01T03:17:24;1.88;;;1.48;;
60239;SDS011;46102;39.012;-7.064;2023-03-01T03:19:25;0.90;;;0.90;;
60239;SDS011;46102;39.012;-7.064;2023-03-01T03:21:26;0.90;;;0.90;;
60239;SDS011;46102;39.012;-7.064;2023-03-01T03:23:27;1.45;;;0.98;;
60239;SDS011;46102;39.012;-7.064;2023-03-01T03:25:29;3.53;;;1.00;;
60239;SDS011;46102;39.012;-7.064;2023-03-01T03:27:30;2.05;;;1.30;;
60239;SDS011;46102;39.012;-7.064;2023-03-01T03:29:32;1.80;;;1.10;;
60239;SDS011;46102;39.012;-7.064;2023-03-01T03:31:33;1.40;;;1.30;;
60239;SDS011;46102;39.012;-7.064;2023-03-01T03:33:34;1.13;;;1.02;;
60239;SDS011;46102;39.012;-7.064;2023-03-01T03:35:38;1.00;;;1.00;;
60239;SDS011;46102;39.012;-7.064;2023-03-01T03:37:42;0.88;;;0.88;;
60239;SDS011;46102;39.012;-7.064;2023-03-01T03:40:01;1.27;;;1.17;;
60239;SDS011;46102;39.012;-7.064;2023-03-01T03:42:02;1.40;;;1.30;;
60239;SDS011;46102;39.012;-7.064;2023-03-01T03:44:03;1.27;;;1.17;;
60239;SDS011;46102;39.012;-7.064;2023-03-01T03:46:04;4.03;;;1.20;;
60239;SDS011;46102;39.012;-7.064;2023-03-01T03:48:06;1.20;;;1.10;;
60239;SDS011;46102;39.012;-7.064;2023-03-01T03:50:10;2.00;;;1.05;;
60239;SDS011;46102;39.012;-7.064;2023-03-01T03:52:12;1.42;;;1.20;;
60239;SDS011;46102;39.012;-7.064;2023-03-01T03:54:13;1.35;;;1.10;;
60239;SDS011;46102;39.012;-7.064;2023-03-01T03:56:14;1.00;;;0.90;;
60239;SDS011;46102;39.012;-7.064;2023-03-01T03:58:15;1.55;;;1.13;;
60239;SDS011;46102;39.012;-7.064;2023-03-01T04:00:19;1.05;;;0.90;;
60239;SDS011;46102;39.012;-7.064;2023-03-01T04:02:23;1.20;;;1.10;;
60239;SDS011;46102;39.012;-7.064;2023-03-01T04:04:25;1.15;;;1.05;;
60239;SDS011;46102;39.012;-7.064;2023-03-01T04:06:26;2.83;;;1.13;;
60239;SDS011;46102;39.012;-7.064;2023-03-01T04:08:27;1.95;;;1.10;;
60239;SDS011;46102;39.012;-7.064;2023-03-01T04:10:28;1.92;;;1.30;;
60239;SDS011;46102;39.012;-7.064;2023-03-01T04:12:30;1.30;;;1.10;;
60239;SDS011;46102;39.012;-7.064;2023-03-01T04:14:34;2.13;;;1.27;;
60239;SDS011;46102;39.012;-7.064;2023-03-01T04:16:34;1.33;;;1.20;;
60239;SDS011;46102;39.012;-7.064;2023-03-01T04:18:35;1.30;;;1.20;;
60239;SDS011;46102;39.012;-7.064;2023-03-01T04:20:36;2.55;;;1.00;;
60239;SDS011;46102;39.012;-7.064;2023-03-01T04:22:37;2.78;;;1.20;;
60239;SDS011;46102;39.012;-7.064;2023-03-01T04:24:39;2.90;;;1.30;;
60239;SDS011;46102;39.012;-7.064;2023-03-01T04:26:40;1.00;;;1.00;;
60239;SDS011;46102;39.012;-7.064;2023-03-01T04:28:41;1.70;;;1.25;;
60239;SDS011;46102;39.012;-7.064;2023-03-01T04:30:45;1.60;;;1.50;;
60239;SDS011;46102;39.012;-7.064;2023-03-01T04:32:46;6.50;;;1.80;;
60239;SDS011;46102;39.012;-7.064;2023-03-01T04:34:47;6.45;;;1.10;;
60239;SDS011;46102;39.012;-7.064;2023-03-01T04:36:48;1.75;;;1.60;;
60239;SDS011;46102;39.012;-7.064;2023-03-01T04:38:48;1.20;;;1.10;;
60239;SDS011;46102;39.012;-7.064;2023-03-01T04:40:49;3.75;;;1.23;;
60239;SDS011;46102;39.012;-7.064;2023-03-01T04:42:50;1.70;;;1.52;;
60239;SDS011;46102;39.012;-7.064;2023-03-01T04:44:51;2.45;;;1.75;;
60239;SDS011;46102;39.012;-7.064;2023-03-01T04:46:52;2.65;;;0.98;;
60239;SDS011;46102;39.012;-7.064;2023-03-01T04:48:53;2.17;;;1.15;;
60239;SDS011;46102;39.012;-7.064;2023-03-01T04:50:54;3.63;;;1.48;;
60239;SDS011;46102;39.012;-7.064;2023-03-01T04:52:54;1.65;;;1.20;;
60239;SDS011;46102;39.012;-7.064;2023-03-01T04:54:58;1.33;;;1.17;;
60239;SDS011;46102;39.012;-7.064;2023-03-01T04:56:59;2.92;;;1.30;;
60239;SDS011;46102;39.012;-7.064;2023-03-01T04:59:00;3.13;;;1.30;;
60239;SDS011;46102;39.012;-7.064;2023-03-01T05:01:08;1.40;;;1.30;;
60239;SDS011;46102;39.012;-7.064;2023-03-01T05:03:15;1.50;;;1.35;;
60239;SDS011;46102;39.012;-7.064;2023-03-01T05:05:19;1.20;;;1.20;;
60239;SDS011;46102;39.012;-7.064;2023-03-01T05:07:25;3.17;;;1.23;;
60239;SDS011;46102;39.012;-7.064;2023-03-01T05:09:26;1.88;;;1.00;;
60239;SDS011;46102;39.012;-7.064;2023-03-01T05:11:27;1.17;;;1.08;;
60239;SDS011;46102;39.012;-7.064;2023-03-01T05:13:32;1.45;;;1.27;;
60239;SDS011;46102;39.012;-7.064;2023-03-01T05:15:32;2.17;;;1.13;;
60239;SDS011;46102;39.012;-7.064;2023-03-01T05:17:33;1.05;;;1.05;;
60239;SDS011;46102;39.012;-7.064;2023-03-01T05:19:34;3.80;;;1.50;;
60239;SDS011;46102;39.012;-7.064;2023-03-01T05:21:35;1.95;;;1.30;;
60239;SDS011;46102;39.012;-7.064;2023-03-01T05:23:56;1.30;;;1.20;;
60239;SDS011;46102;39.012;-7.064;2023-03-01T05:25:57;2.05;;;1.60;;
60239;SDS011;46102;39.012;-7.064;2023-03-01T05:28:00;2.30;;;1.20;;
60239;SDS011;46102;39.012;-7.064;2023-03-01T05:30:04;1.67;;;1.58;;
60239;SDS011;46102;39.012;-7.064;2023-03-01T05:32:13;1.13;;;1.02;;
60239;SDS011;46102;39.012;-7.064;2023-03-01T05:34:15;2.28;;;1.52;;
60239;SDS011;46102;39.012;-7.064;2023-03-01T05:36:16;4.72;;;1.80;;
60239;SDS011;46102;39.012;-7.064;2023-03-01T05:38:18;2.95;;;1.40;;
60239;SDS011;46102;39.012;-7.064;2023-03-01T05:40:21;1.58;;;1.10;;
60239;SDS011;46102;39.012;-7.064;2023-03-01T05:42:24;1.30;;;1.20;;
60239;SDS011;46102;39.012;-7.064;2023-03-01T05:44:25;1.27;;;1.20;;
60239;SDS011;46102;39.012;-7.064;2023-03-01T05:46:26;7.72;;;1.40;;
60239;SDS011;46102;39.012;-7.064;2023-03-01T05:48:27;1.40;;;1.30;;
60239;SDS011;46102;39.012;-7.064;2023-03-01T05:50:28;1.35;;;1.25;;
60239;SDS011;46102;39.012;-7.064;2023-03-01T05:52:30;3.88;;;1.65;;
60239;SDS011;46102;39.012;-7.064;2023-03-01T05:54:30;2.92;;;1.20;;
60239;SDS011;46102;39.012;-7.064;2023-03-01T05:56:35;1.48;;;1.38;;
60239;SDS011;46102;39.012;-7.064;2023-03-01T05:58:36;1.55;;;1.20;;
60239;SDS011;46102;39.012;-7.064;2023-03-01T06:00:38;2.03;;;1.42;;
60239;SDS011;46102;39.012;-7.064;2023-03-01T06:02:39;1.25;;;1.15;;
60239;SDS011;46102;39.012;-7.064;2023-03-01T06:04:40;1.60;;;1.50;;
60239;SDS011;46102;39.012;-7.064;2023-03-01T06:06:41;2.55;;;1.35;;
60239;SDS011;46102;39.012;-7.064;2023-03-01T06:08:42;1.55;;;1.45;;
60239;SDS011;46102;39.012;-7.064;2023-03-01T06:10:43;1.45;;;1.35;;
60239;SDS011;46102;39.012;-7.064;2023-03-01T06:12:44;1.50;;;1.35;;
60239;SDS011;46102;39.012;-7.064;2023-03-01T06:14:45;5.60;;;1.65;;
60239;SDS011;46102;39.012;-7.064;2023-03-01T06:16:47;1.27;;;1.20;;
60239;SDS011;46102;39.012;-7.064;2023-03-01T06:18:48;2.05;;;1.20;;
60239;SDS011;46102;39.012;-7.064;2023-03-01T06:20:52;3.42;;;1.40;;
60239;SDS011;46102;39.012;-7.064;2023-03-01T06:22:54;3.08;;;1.23;;
60239;SDS011;46102;39.012;-7.064;2023-03-01T06:24:55;6.00;;;1.80;;
60239;SDS011;46102;39.012;-7.064;2023-03-01T06:26:55;2.17;;;1.35;;
60239;SDS011;46102;39.012;-7.064;2023-03-01T06:28:56;1.73;;;1.48;;
60239;SDS011;46102;39.012;-7.064;2023-03-01T06:30:57;1.25;;;1.15;;
60239;SDS011;46102;39.012;-7.064;2023-03-01T06:32:58;1.75;;;1.27;;
60239;SDS011;46102;39.012;-7.064;2023-03-01T06:35:01;4.20;;;1.63;;
60239;SDS011;46102;39.012;-7.064;2023-03-01T06:37:02;1.90;;;1.42;;
60239;SDS011;46102;39.012;-7.064;2023-03-01T06:39:05;1.40;;;1.30;;
60239;SDS011;46102;39.012;-7.064;2023-03-01T06:41:06;3.53;;;1.70;;
60239;SDS011;46102;39.012;-7.064;2023-03-01T06:43:07;4.22;;;1.35;;
60239;SDS011;46102;39.012;-7.064;2023-03-01T06:45:08;1.77;;;1.67;;
60239;SDS011;46102;39.012;-7.064;2023-03-01T06:47:09;2.10;;;1.60;;
60239;SDS011;46102;39.012;-7.064;2023-03-01T06:49:10;2.20;;;1.65;;
60239;SDS011;46102;39.012;-7.064;2023-03-01T06:51:11;2.03;;;1.77;;
60239;SDS011;46102;39.012;-7.064;2023-03-01T06:53:12;4.13;;;2.08;;
60239;SDS011;46102;39.012;-7.064;2023-03-01T06:55:13;3.10;;;2.25;;
60239;SDS011;46102;39.012;-7.064;2023-03-01T06:57:13;2.17;;;1.52;;
60239;SDS011;46102;39.012;-7.064;2023-03-01T06:59:14;2.15;;;1.95;;
60239;SDS011;46102;39.012;-7.064;2023-03-01T07:01:15;1.90;;;1.77;;
60239;SDS011;46102;39.012;-7.064;2023-03-01T07:03:16;2.83;;;2.38;;
60239;SDS011;46102;39.012;-7.064;2023-03-01T07:05:17;2.85;;;1.98;;
60239;SDS011;46102;39.012;-7.064;2023-03-01T07:07:18;5.72;;;1.83;;
60239;SDS011;46102;39.012;-7.064;2023-03-01T07:09:19;3.97;;;1.85;;
60239;SDS011;46102;39.012;-7.064;2023-03-01T07:11:22;1.90;;;1.80;;
60239;SDS011;46102;39.012;-7.064;2023-03-01T07:13:23;1.67;;;1.58;;
60239;SDS011;46102;39.012;-7.064;2023-03-01T07:15:24;5.35;;;1.75;;
60239;SDS011;46102;39.012;-7.064;2023-03-01T07:17:26;2.72;;;2.10;;
60239;SDS011;46102;39.012;-7.064;2023-03-01T07:19:27;4.22;;;2.03;;
60239;SDS011;46102;39.012;-7.064;2023-03-01T07:21:28;2.40;;;2.20;;
60239;SDS011;46102;39.012;-7.064;2023-03-01T07:23:29;1.85;;;1.75;;
60239;SDS011;46102;39.012;-7.064;2023-03-01T07:25:30;14.02;;;5.03;;
60239;SDS011;46102;39.012;-7.064;2023-03-01T07:27:31;3.85;;;3.00;;
60239;SDS011;46102;39.012;-7.064;2023-03-01T07:29:31;5.47;;;3.30;;
60239;SDS011;46102;39.012;-7.064;2023-03-01T07:31:33;6.20;;;3.88;;
60239;SDS011;46102;39.012;-7.064;2023-03-01T07:33:33;3.70;;;3.40;;
60239;SDS011;46102;39.012;-7.064;2023-03-01T07:35:34;4.35;;;3.45;;
60239;SDS011;46102;39.012;-7.064;2023-03-01T07:37:35;2.80;;;2.60;;
60239;SDS011;46102;39.012;-7.064;2023-03-01T07:39:36;3.28;;;2.97;;
60239;SDS011;46102;39.012;-7.064;2023-03-01T07:41:37;3.50;;;2.67;;
60239;SDS011;46102;39.012;-7.064;2023-03-01T07:43:38;2.80;;;2.00;;
60239;SDS011;46102;39.012;-7.064;2023-03-01T07:45:38;2.13;;;1.80;;
60239;SDS011;46102;39.012;-7.064;2023-03-01T07:47:39;2.97;;;2.70;;
60239;SDS011;46102;39.012;-7.064;2023-03-01T07:49:40;1.92;;;1.83;;
60239;SDS011;46102;39.012;-7.064;2023-03-01T07:51:43;2.40;;;1.58;;
60239;SDS011;46102;39.012;-7.064;2023-03-01T07:53:45;2.28;;;2.17;;
60239;SDS011;46102;39.012;-7.064;2023-03-01T07:55:47;2.00;;;1.90;;
60239;SDS011;46102;39.012;-7.064;2023-03-01T07:57:48;2.88;;;1.58;;
60239;SDS011;46102;39.012;-7.064;2023-03-01T07:59:49;2.38;;;2.17;;
60239;SDS011;46102;39.012;-7.064;2023-03-01T08:01:49;2.75;;;2.05;;
60239;SDS011;46102;39.012;-7.064;2023-03-01T08:03:50;5.60;;;2.05;;
60239;SDS011;46102;39.012;-7.064;2023-03-01T08:05:51;2.22;;;2.03;;
60239;SDS011;46102;39.012;-7.064;2023-03-01T08:07:52;3.83;;;1.70;;
60239;SDS011;46102;39.012;-7.064;2023-03-01T08:09:53;1.30;;;1.15;;
60239;SDS011;46102;39.012;-7.064;2023-03-01T08:11:55;1.73;;;1.48;;
60239;SDS011;46102;39.012;-7.064;2023-03-01T08:13:56;1.75;;;1.13;;
60239;SDS011;46102;39.012;-7.064;2023-03-01T08:16:02;1.90;;;1.65;;
60239;SDS011;46102;39.012;-7.064;2023-03-01T08:18:08;2.05;;;1.52;;
60239;SDS011;46102;39.012;-7.064;2023-03-01T08:20:09;1.42;;;1.33;;
60239;SDS011;46102;39.012;-7.064;2023-03-01T08:22:12;3.70;;;1.80;;
60239;SDS011;46102;39.012;-7.064;2023-03-01T08:24:13;1.90;;;1.80;;
60239;SDS011;46102;39.012;-7.064;2023-03-01T08:26:15;5.90;;;1.70;;
60239;SDS011;46102;39.012;-7.064;2023-03-01T08:28:18;2.38;;;2.03;;
60239;SDS011;46102;39.012;-7.064;2023-03-01T08:30:19;3.10;;;1.90;;
60239;SDS011;46102;39.012;-7.064;2023-03-01T08:32:20;3.03;;;2.22;;
60239;SDS011;46102;39.012;-7.064;2023-03-01T08:34:21;4.05;;;1.80;;
60239;SDS011;46102;39.012;-7.064;2023-03-01T08:36:22;1.38;;;1.27;;
60239;SDS011;46102;39.012;-7.064;2023-03-01T08:38:26;2.70;;;1.30;;
60239;SDS011;46102;39.012;-7.064;2023-03-01T08:40:27;1.73;;;1.20;;
60239;SDS011;46102;39.012;-7.064;2023-03-01T08:42:28;2.10;;;1.17;;
60239;SDS011;46102;39.012;-7.064;2023-03-01T08:44:29;1.60;;;1.20;;
60239;SDS011;46102;39.012;-7.064;2023-03-01T08:46:35;1.90;;;1.80;;
60239;SDS011;46102;39.012;-7.064;2023-03-01T08:48:38;3.10;;;1.42;;
60239;SDS011;46102;39.012;-7.064;2023-03-01T08:50:39;2.47;;;1.73;;
60239;SDS011;46102;39.012;-7.064;2023-03-01T08:52:42;5.95;;;2.28;;
60239;SDS011;46102;39.012;-7.064;2023-03-01T08:54:43;1.88;;;1.77;;
60239;SDS011;46102;39.012;-7.064;2023-03-01T08:56:44;2.15;;;1.30;;
60239;SDS011;46102;39.012;-7.064;2023-03-01T08:58:46;2.78;;;1.35;;
60239;SDS011;46102;39.012;-7.064;2023-03-01T09:00:48;1.73;;;1.63;;
60239;SDS011;46102;39.012;-7.064;2023-03-01T09:02:48;2.03;;;1.75;;
60239;SDS011;46102;39.012;-7.064;2023-03-01T09:04:49;2.58;;;1.60;;
60239;SDS011;46102;39.012;-7.064;2023-03-01T09:06:50;1.80;;;1.70;;
60239;SDS011;46102;39.012;-7.064;2023-03-01T09:08:51;7.95;;;1.55;;
60239;SDS011;46102;39.012;-7.064;2023-03-01T09:10:52;1.58;;;1.33;;
60239;SDS011;46102;39.012;-7.064;2023-03-01T09:12:52;5.72;;;1.80;;
60239;SDS011;46102;39.012;-7.064;2023-03-01T09:14:53;4.55;;;2.05;;
60239;SDS011;46102;39.012;-7.064;2023-03-01T09:16:54;3.25;;;2.08;;
60239;SDS011;46102;39.012;-7.064;2023-03-01T09:18:55;4.53;;;1.75;;
60239;SDS011;46102;39.012;-7.064;2023-03-01T09:21:05;2.25;;;1.63;;
60239;SDS011;46102;39.012;-7.064;2023-03-01T09:23:08;4.03;;;3.08;;
60239;SDS011;46102;39.012;-7.064;2023-03-01T09:25:08;2.35;;;1.85;;
60239;SDS011;46102;39.012;-7.064;2023-03-01T09:27:09;2.03;;;1.80;;
60239;SDS011;46102;39.012;-7.064;2023-03-01T09:29:11;3.53;;;1.98;;
60239;SDS011;46102;39.012;-7.064;2023-03-01T09:31:13;3.25;;;1.75;;
60239;SDS011;46102;39.012;-7.064;2023-03-01T09:33:14;2.35;;;1.80;;
60239;SDS011;46102;39.012;-7.064;2023-03-01T09:35:14;2.05;;;1.95;;
60239;SDS011;46102;39.012;-7.064;2023-03-01T09:37:15;7.50;;;1.73;;
60239;SDS011;46102;39.012;-7.064;2023-03-01T09:39:16;3.13;;;2.42;;
60239;SDS011;46102;39.012;-7.064;2023-03-01T09:45:47;1.60;;;1.40;;
60239;SDS011;46102;39.012;-7.064;2023-03-01T09:47:51;5.43;;;1.50;;
60239;SDS011;46102;39.012;-7.064;2023-03-01T09:52:25;2.00;;;1.90;;
60239;SDS011;46102;39.012;-7.064;2023-03-01T09:54:27;2.45;;;2.08;;
60239;SDS011;46102;39.012;-7.064;2023-03-01T09:56:36;2.53;;;1.67;;
60239;SDS011;46102;39.012;-7.064;2023-03-01T10:05:34;3.22;;;2.20;;
60239;SDS011;46102;39.012;-7.064;2023-03-01T10:10:07;7.35;;;2.03;;
60239;SDS011;46102;39.012;-7.064;2023-03-01T10:12:17;3.35;;;1.90;;
60239;SDS011;46102;39.012;-7.064;2023-03-01T10:18:53;2.90;;;2.45;;
60239;SDS011;46102;39.012;-7.064;2023-03-01T10:21:00;1.63;;;1.52;;
60239;SDS011;46102;39.012;-7.064;2023-03-01T10:23:04;1.67;;;1.30;;
60239;SDS011;46102;39.012;-7.064;2023-03-01T10:25:05;1.50;;;1.40;;
60239;SDS011;46102;39.012;-7.064;2023-03-01T10:27:12;0.98;;;0.98;;
60239;SDS011;46102;39.012;-7.064;2023-03-01T10:29:16;1.05;;;1.02;;
60239;SDS011;46102;39.012;-7.064;2023-03-01T10:31:19;1.67;;;1.33;;
60239;SDS011;46102;39.012;-7.064;2023-03-01T10:33:32;1.85;;;1.35;;
60239;SDS011;46102;39.012;-7.064;2023-03-01T10:35:35;1.73;;;1.50;;
60239;SDS011;46102;39.012;-7.064;2023-03-01T10:37:36;3.80;;;1.60;;
60239;SDS011;46102;39.012;-7.064;2023-03-01T10:40:04;1.77;;;1.27;;
60239;SDS011;46102;39.012;-7.064;2023-03-01T10:42:19;1.67;;;1.27;;
60239;SDS011;46102;39.012;-7.064;2023-03-01T10:44:39;4.13;;;1.30;;
60239;SDS011;46102;39.012;-7.064;2023-03-01T10:46:44;1.15;;;1.05;;
60239;SDS011;46102;39.012;-7.064;2023-03-01T10:48:45;1.75;;;1.10;;
60239;SDS011;46102;39.012;-7.064;2023-03-01T10:50:47;2.78;;;1.52;;
60239;SDS011;46102;39.012;-7.064;2023-03-01T10:52:59;1.30;;;0.98;;
60239;SDS011;46102;39.012;-7.064;2023-03-01T10:59:34;3.05;;;1.83;;
60239;SDS011;46102;39.012;-7.064;2023-03-01T11:01:36;1.73;;;1.52;;
60239;SDS011;46102;39.012;-7.064;2023-03-01T11:03:38;2.17;;;1.58;;
60239;SDS011;46102;39.012;-7.064;2023-03-01T11:05:50;1.60;;;1.50;;
60239;SDS011;46102;39.012;-7.064;2023-03-01T11:08:02;4.03;;;1.17;;
60239;SDS011;46102;39.012;-7.064;2023-03-01T11:10:11;1.73;;;1.63;;
60239;SDS011;46102;39.012;-7.064;2023-03-01T11:12:15;2.92;;;1.55;;
60239;SDS011;46102;39.012;-7.064;2023-03-01T11:14:21;1.80;;;1.70;;
60239;SDS011;46102;39.012;-7.064;2023-03-01T11:16:24;2.33;;;1.70;;
60239;SDS011;46102;39.012;-7.064;2023-03-01T11:18:28;1.60;;;1.13;;
60239;SDS011;46102;39.012;-7.064;2023-03-01T11:20:32;1.77;;;1.30;;
60239;SDS011;46102;39.012;-7.064;2023-03-01T11:22:35;4.68;;;1.25;;
60239;SDS011;46102;39.012;-7.064;2023-03-01T11:24:43;1.40;;;1.20;;
60239;SDS011;46102;39.012;-7.064;2023-03-01T11:26:50;3.15;;;1.30;;
60239;SDS011;46102;39.012;-7.064;2023-03-01T11:28:55;1.80;;;1.02;;
60239;SDS011;46102;39.012;-7.064;2023-03-01T11:31:05;1.35;;;1.25;;
60239;SDS011;46102;39.012;-7.064;2023-03-01T11:33:20;3.30;;;1.30;;
60239;SDS011;46102;39.012;-7.064;2023-03-01T11:38:16;1.63;;;1.52;;
60239;SDS011;46102;39.012;-7.064;2023-03-01T11:40:26;1.50;;;1.00;;
60239;SDS011;46102;39.012;-7.064;2023-03-01T11:45:08;2.42;;;1.08;;
60239;SDS011;46102;39.012;-7.064;2023-03-01T11:47:17;1.30;;;1.20;;
60239;SDS011;46102;39.012;-7.064;2023-03-01T11:49:46;2.03;;;1.50;;
60239;SDS011;46102;39.012;-7.064;2023-03-01T11:56:52;2.03;;;1.30;;
60239;SDS011;46102;39.012;-7.064;2023-03-01T12:10:26;2.63;;;1.20;;
60239;SDS011;46102;39.012;-7.064;2023-03-01T12:23:51;1.00;;;1.00;;
60239;SDS011;46102;39.012;-7.064;2023-03-01T12:30:54;1.15;;;1.08;;
60239;SDS011;46102;39.012;-7.064;2023-03-01T12:38:08;1.27;;;1.17;;
60239;SDS011;46102;39.012;-7.064;2023-03-01T12:40:29;1.48;;;1.25;;
60239;SDS011;46102;39.012;-7.064;2023-03-01T12:42:46;3.00;;;1.40;;
60239;SDS011;46102;39.012;-7.064;2023-03-01T12:45:02;0.90;;;0.88;;
60239;SDS011;46102;39.012;-7.064;2023-03-01T12:49:59;2.53;;;2.33;;
60239;SDS011;46102;39.012;-7.064;2023-03-01T12:52:11;1.85;;;1.58;;
60239;SDS011;46102;39.012;-7.064;2023-03-01T12:54:22;1.77;;;1.60;;
60239;SDS011;46102;39.012;-7.064;2023-03-01T12:56:29;1.27;;;1.05;;
60239;SDS011;46102;39.012;-7.064;2023-03-01T12:58:38;1.40;;;1.30;;
60239;SDS011;46102;39.012;-7.064;2023-03-01T13:06:16;1.20;;;1.10;;
60239;SDS011;46102;39.012;-7.064;2023-03-01T13:10:42;1.45;;;0.80;;
60239;SDS011;46102;39.012;-7.064;2023-03-01T13:14:49;1.50;;;0.77;;
60239;SDS011;46102;39.012;-7.064;2023-03-01T13:16:54;1.05;;;0.85;;
60239;SDS011;46102;39.012;-7.064;2023-03-01T13:19:09;1.42;;;1.10;;
60239;SDS011;46102;39.012;-7.064;2023-03-01T13:21:28;1.38;;;1.25;;
60239;SDS011;46102;39.012;-7.064;2023-03-01T13:23:33;1.23;;;0.98;;
60239;SDS011;46102;39.012;-7.064;2023-03-01T13:25:59;2.15;;;1.25;;
60239;SDS011;46102;39.012;-7.064;2023-03-01T13:30:41;0.90;;;0.90;;
60239;SDS011;46102;39.012;-7.064;2023-03-01T13:32:42;2.17;;;1.60;;
60239;SDS011;46102;39.012;-7.064;2023-03-01T13:34:44;3.15;;;1.63;;
60239;SDS011;46102;39.012;-7.064;2023-03-01T13:36:48;1.00;;;0.98;;
60239;SDS011;46102;39.012;-7.064;2023-03-01T13:41:00;1.40;;;0.82;;
60239;SDS011;46102;39.012;-7.064;2023-03-01T13:43:22;2.75;;;1.10;;
60239;SDS011;46102;39.012;-7.064;2023-03-01T13:45:34;1.50;;;1.30;;
60239;SDS011;46102;39.012;-7.064;2023-03-01T13:47:41;1.50;;;1.10;;